Terminal Aerodrome Forecast
Issued by NWS

Home | Current Version | Previous Version | Text Only | Print | Product List | Glossary On
Versions: 1 2 3 4 5 6 7 8 9 10 11 12 13 14 15
000
FTUS44 KCRP 192342
TAFLRD
TAF
KLRD 192342Z 2000/2024 11009KT P6SM SCT025 BKN050
     FM201100 12005KT P6SM BKN015 BKN050
     FM201600 13011KT P6SM BKN035=

USA.gov is the U.S. government's official web portal to all federal, state and local government web resources and services.